createdAt,value
2022-11-29T00:01:24.558Z,85.30
2022-11-29T00:04:27.648Z,85.08
2022-11-29T00:07:30.627Z,85.17
2022-11-29T00:10:37.343Z,85.49
2022-11-29T00:13:40.693Z,85.22
2022-11-29T00:16:43.566Z,84.70
2022-11-29T00:19:46.223Z,84.46
2022-11-29T00:22:48.771Z,84.71
2022-11-29T00:25:51.679Z,84.86
2022-11-29T00:28:54.248Z,84.42
2022-11-29T00:31:57.011Z,84.77
2022-11-29T00:34:59.692Z,84.77
2022-11-29T00:38:03.000Z,84.55
2022-11-29T00:41:06.494Z,84.85
2022-11-29T00:44:11.108Z,85.48
2022-11-29T00:47:15.468Z,84.79
2022-11-29T00:50:18.147Z,86.50
2022-11-29T00:53:20.659Z,89.38
2022-11-29T00:56:23.571Z,89.85
2022-11-29T00:59:26.245Z,90.02
2022-11-29T01:02:29.239Z,89.65
2022-11-29T01:05:32.644Z,89.47
2022-11-29T01:08:36.088Z,90.52
2022-11-29T01:11:38.851Z,91.69
2022-11-29T01:14:41.799Z,91.69
2022-11-29T01:17:44.724Z,91.04
2022-11-29T01:20:56.486Z,91.33
2022-11-29T01:24:00.126Z,91.70
2022-11-29T01:27:02.932Z,91.70
2022-11-29T01:30:07.582Z,91.11
2022-11-29T01:33:10.233Z,90.55
2022-11-29T01:36:13.831Z,90.39
2022-11-29T01:39:16.652Z,90.11
2022-11-29T01:42:19.712Z,90.03
2022-11-29T01:45:26.628Z,89.99
2022-11-29T01:48:32.884Z,90.28
2022-11-29T01:51:37.530Z,90.33
2022-11-29T01:54:45.511Z,90.50
2022-11-29T01:57:48.483Z,90.53
2022-11-29T02:00:50.980Z,90.87
2022-11-29T02:03:53.955Z,90.63
2022-11-29T02:06:56.431Z,90.87
2022-11-29T02:09:59.616Z,91.04
2022-11-29T02:13:16.615Z,90.69
2022-11-29T02:16:35.108Z,91.13
2022-11-29T02:20:19.017Z,91.24
2022-11-29T02:23:58.678Z,91.02
2022-11-29T02:27:25.803Z,90.66
2022-11-29T02:30:49.564Z,90.70
2022-11-29T02:33:54.981Z,90.26
2022-11-29T02:36:57.802Z,90.15
2022-11-29T02:40:37.388Z,89.85
2022-11-29T02:43:58.671Z,90.40
2022-11-29T02:47:19.493Z,90.83
2022-11-29T02:50:37.185Z,90.35
2022-11-29T02:53:51.407Z,90.10
2022-11-29T02:57:11.934Z,89.93
2022-11-29T03:00:20.161Z,89.76
2022-11-29T03:03:33.195Z,90.28
2022-11-29T03:07:11.528Z,90.51
2022-11-29T03:10:42.936Z,90.54
2022-11-29T03:14:11.969Z,91.14
2022-11-29T03:17:32.032Z,90.84
2022-11-29T03:20:49.766Z,90.56
2022-11-29T03:23:59.278Z,91.30
2022-11-29T03:27:11.836Z,91.16
2022-11-29T03:30:18.735Z,91.37
2022-11-29T03:33:45.888Z,91.86
2022-11-29T03:37:03.991Z,91.66
2022-11-29T03:40:08.380Z,91.00
2022-11-29T03:43:30.916Z,90.93
2022-11-29T03:46:42.284Z,90.87
2022-11-29T03:49:54.687Z,91.02
2022-11-29T03:53:04.068Z,90.43
2022-11-29T03:56:32.958Z,90.39
2022-11-29T03:59:55.378Z,90.83
2022-11-29T04:03:22.405Z,90.72
2022-11-29T04:06:58.996Z,91.24
2022-11-29T04:10:29.960Z,90.99
2022-11-29T04:14:02.598Z,90.77
2022-11-29T04:17:25.690Z,90.69
2022-11-29T04:20:56.147Z,90.69
2022-11-29T04:24:07.886Z,90.64
2022-11-29T04:27:19.472Z,90.75
2022-11-29T04:30:25.570Z,90.88
2022-11-29T04:33:34.464Z,91.27
2022-11-29T04:36:52.168Z,90.89
2022-11-29T04:40:25.066Z,91.55
2022-11-29T04:43:47.731Z,91.96
2022-11-29T04:47:25.840Z,91.87
2022-11-29T04:50:34.578Z,91.81
2022-11-29T04:53:56.209Z,91.70
2022-11-29T04:57:08.092Z,91.52
2022-11-29T05:00:15.622Z,92.11
2022-11-29T05:03:31.487Z,91.48
2022-11-29T05:07:03.062Z,91.64
2022-11-29T05:10:11.738Z,92.32
2022-11-29T05:14:02.523Z,92.58
2022-11-29T05:17:14.286Z,92.16
2022-11-29T05:20:47.742Z,92.11
2022-11-29T05:24:18.252Z,92.15
2022-11-29T05:27:47.282Z,92.52
2022-11-29T05:31:04.903Z,92.39
2022-11-29T05:34:10.341Z,92.65
2022-11-29T05:37:35.661Z,92.35
2022-11-29T05:41:15.664Z,91.72
2022-11-29T05:44:34.334Z,91.75
2022-11-29T05:47:55.641Z,92.01
2022-11-29T05:51:08.032Z,92.06
2022-11-29T05:54:34.978Z,92.15
2022-11-29T05:57:55.675Z,91.98
2022-11-29T06:01:14.202Z,91.65
2022-11-29T06:04:48.941Z,91.60
2022-11-29T06:08:03.591Z,91.79
2022-11-29T06:11:38.808Z,91.36
2022-11-29T06:15:10.519Z,91.50
2022-11-29T06:18:46.424Z,91.59
2022-11-29T06:21:48.863Z,91.23
2022-11-29T06:25:21.799Z,91.50
2022-11-29T06:28:27.219Z,91.72
2022-11-29T06:31:38.495Z,92.19
2022-11-29T06:34:53.452Z,92.41
2022-11-29T06:37:59.018Z,92.63
2022-11-29T06:41:02.627Z,92.05
2022-11-29T06:44:06.050Z,92.08
2022-11-29T06:47:42.660Z,91.75
2022-11-29T06:51:03.419Z,91.66
2022-11-29T06:54:19.897Z,91.68
2022-11-29T06:57:37.540Z,91.56
2022-11-29T07:00:59.885Z,91.39
2022-11-29T07:04:45.740Z,91.22
2022-11-29T07:07:49.704Z,91.36
2022-11-29T07:10:54.987Z,90.88
2022-11-29T07:13:58.299Z,91.58
2022-11-29T07:17:12.816Z,91.49
2022-11-29T07:20:21.035Z,91.31
2022-11-29T07:23:31.337Z,90.70
2022-11-29T07:26:56.504Z,90.21
2022-11-29T07:30:05.304Z,90.04
2022-11-29T07:33:14.113Z,89.95
2022-11-29T07:36:19.617Z,89.37
2022-11-29T07:39:43.612Z,90.05
2022-11-29T07:43:02.210Z,89.92
2022-11-29T07:46:05.286Z,89.08
2022-11-29T07:49:11.343Z,89.75
2022-11-29T07:52:16.335Z,89.23
2022-11-29T07:55:21.914Z,88.84
2022-11-29T07:58:24.759Z,88.93
2022-11-29T08:01:27.422Z,89.08
2022-11-29T08:04:30.390Z,88.70
2022-11-29T08:07:37.500Z,88.09
2022-11-29T08:10:40.125Z,88.21
2022-11-29T08:13:42.578Z,88.71
2022-11-29T08:16:45.241Z,89.52
2022-11-29T08:19:47.993Z,88.88
2022-11-29T08:22:58.409Z,88.70
2022-11-29T08:26:02.553Z,88.42
2022-11-29T08:29:05.135Z,87.74
2022-11-29T08:32:09.057Z,88.08
2022-11-29T08:35:11.866Z,87.54
2022-11-29T08:38:14.292Z,87.40
2022-11-29T08:41:17.648Z,87.32
2022-11-29T08:44:20.232Z,87.22
2022-11-29T08:47:38.452Z,86.98
2022-11-29T08:50:40.975Z,86.98
2022-11-29T08:53:44.006Z,87.05
2022-11-29T08:57:31.101Z,85.59
2022-11-29T09:00:10.279Z,85.85
2022-11-29T09:03:31.503Z,85.99
2022-11-29T09:06:44.646Z,85.08
2022-11-29T09:09:47.287Z,85.58
2022-11-29T09:12:51.440Z,85.72
2022-11-29T09:15:53.993Z,85.26
2022-11-29T09:18:57.595Z,84.86
2022-11-29T09:22:00.097Z,85.05
2022-11-29T09:25:02.781Z,85.00
2022-11-29T09:28:05.796Z,84.75
2022-11-29T09:31:10.863Z,82.38
2022-11-29T09:34:14.799Z,81.06
2022-11-29T09:37:17.364Z,79.49
2022-11-29T09:40:25.571Z,78.02
2022-11-29T09:43:40.090Z,77.47
2022-11-29T09:47:00.547Z,78.33
2022-11-29T09:50:19.761Z,78.46
2022-11-29T09:53:31.416Z,78.94
2022-11-29T09:56:49.787Z,77.76
2022-11-29T09:59:58.023Z,71.85
2022-11-29T10:03:15.238Z,67.66
2022-11-29T10:06:30.845Z,68.11
2022-11-29T10:09:57.113Z,64.64
2022-11-29T10:13:15.925Z,63.50
2022-11-29T10:16:45.114Z,65.83
2022-11-29T10:19:52.968Z,61.24
2022-11-29T10:23:26.352Z,59.98
2022-11-29T10:26:34.790Z,58.09
2022-11-29T10:29:38.791Z,56.39
2022-11-29T10:32:44.127Z,56.74
2022-11-29T10:35:51.107Z,58.38
2022-11-29T10:38:59.643Z,60.05
2022-11-29T10:42:04.106Z,60.38
2022-11-29T10:45:21.423Z,61.65
2022-11-29T10:48:33.971Z,61.12
2022-11-29T10:51:36.602Z,61.24
2022-11-29T10:54:42.624Z,60.94
2022-11-29T10:58:16.814Z,59.88
2022-11-29T11:01:19.637Z,59.88
2022-11-29T11:04:30.040Z,61.51
2022-11-29T11:07:36.068Z,61.08
2022-11-29T11:10:39.404Z,62.33
2022-11-29T11:13:42.702Z,62.71
2022-11-29T11:16:45.494Z,63.53
2022-11-29T11:19:58.279Z,62.86
2022-11-29T11:23:04.617Z,63.99
2022-11-29T11:26:10.382Z,65.08
2022-11-29T11:29:25.651Z,67.24
2022-11-29T11:32:28.799Z,67.12
2022-11-29T11:35:32.559Z,67.70
2022-11-29T11:38:37.649Z,66.91
2022-11-29T11:42:02.544Z,67.22
2022-11-29T11:45:05.223Z,68.24
2022-11-29T11:48:16.322Z,66.16
2022-11-29T11:51:23.333Z,67.20
2022-11-29T11:54:27.164Z,68.82
2022-11-29T11:57:31.158Z,69.08
2022-11-29T12:04:15.080Z,65.90
2022-11-29T12:08:05.740Z,65.09
2022-11-29T12:11:02.715Z,64.74
2022-11-29T12:14:15.865Z,64.27
2022-11-29T12:17:37.827Z,64.29
2022-11-29T12:21:07.371Z,66.66
2022-11-29T12:24:34.523Z,65.64
2022-11-29T12:27:37.211Z,65.19
2022-11-29T12:31:04.490Z,64.35
2022-11-29T12:34:34.690Z,64.49
2022-11-29T12:38:02.076Z,64.02
2022-11-29T12:41:18.703Z,62.09
2022-11-29T12:44:50.611Z,63.67
2022-11-29T12:48:02.415Z,65.13
2022-11-29T12:51:18.863Z,65.94
2022-11-29T12:54:40.215Z,65.58
2022-11-29T12:58:20.635Z,66.48
2022-11-29T13:01:35.548Z,67.90
2022-11-29T13:04:46.679Z,68.80
2022-11-29T13:08:01.495Z,69.79
2022-11-29T13:11:14.672Z,70.15
2022-11-29T13:14:43.959Z,70.37
2022-11-29T13:18:11.731Z,71.68
2022-11-29T13:21:47.563Z,72.17
2022-11-29T13:25:13.368Z,72.48
2022-11-29T13:28:25.510Z,73.26
2022-11-29T13:31:29.026Z,73.10
2022-11-29T13:34:41.725Z,73.65
2022-11-29T13:37:55.361Z,73.69
2022-11-29T13:41:11.451Z,74.13
2022-11-29T13:44:19.897Z,73.51
2022-11-29T13:47:22.507Z,72.72
2022-11-29T13:50:41.376Z,72.77
2022-11-29T13:53:48.807Z,70.78
2022-11-29T13:57:08.364Z,70.86
2022-11-29T14:00:33.072Z,72.82
2022-11-29T14:03:41.024Z,73.57
2022-11-29T14:06:47.924Z,74.26
2022-11-29T14:10:00.886Z,75.33
2022-11-29T14:13:05.216Z,76.41
2022-11-29T14:16:19.407Z,77.81
2022-11-29T14:19:36.185Z,78.38
2022-11-29T14:23:04.607Z,78.40
2022-11-29T14:26:07.121Z,78.19
2022-11-29T14:29:58.689Z,78.51
2022-11-29T14:33:18.054Z,78.91
2022-11-29T14:36:45.688Z,78.88
2022-11-29T14:39:52.904Z,79.21
2022-11-29T14:42:55.458Z,79.73
2022-11-29T14:46:30.764Z,79.99
2022-11-29T14:49:44.944Z,79.92
2022-11-29T14:52:51.379Z,81.39
2022-11-29T14:56:32.028Z,83.38
2022-11-29T14:59:49.379Z,83.46
2022-11-29T15:03:02.564Z,83.12
2022-11-29T15:06:26.854Z,83.15
2022-11-29T15:09:33.770Z,83.72
2022-11-29T15:12:38.072Z,83.92
2022-11-29T15:16:02.989Z,84.75
2022-11-29T15:19:37.691Z,83.49
2022-11-29T15:22:48.203Z,84.13
2022-11-29T15:25:59.694Z,85.13
2022-11-29T15:29:29.800Z,85.79
2022-11-29T15:32:33.103Z,85.74
2022-11-29T15:35:37.191Z,84.18
2022-11-29T15:38:54.880Z,83.98
2022-11-29T15:42:19.531Z,84.59
2022-11-29T15:45:36.841Z,84.76
2022-11-29T15:48:39.628Z,84.02
2022-11-29T15:51:43.263Z,83.67
2022-11-29T15:54:57.073Z,83.55
2022-11-29T15:58:08.352Z,82.83
2022-11-29T16:01:20.951Z,83.12
2022-11-29T16:04:24.576Z,83.29
2022-11-29T16:07:32.804Z,82.99
2022-11-29T16:10:46.229Z,83.94
2022-11-29T16:14:03.009Z,84.67
2022-11-29T16:17:05.850Z,85.93
2022-11-29T16:20:14.646Z,86.38
2022-11-29T16:23:17.229Z,86.14
2022-11-29T16:26:32.928Z,85.52
2022-11-29T16:29:45.134Z,84.45
2022-11-29T16:33:03.613Z,83.64
2022-11-29T16:36:26.600Z,83.52
2022-11-29T16:39:29.835Z,83.40
2022-11-29T16:42:33.679Z,84.63
2022-11-29T16:45:41.143Z,84.58
2022-11-29T16:48:44.022Z,85.18
2022-11-29T16:51:48.728Z,85.80
2022-11-29T16:54:51.478Z,86.68
2022-11-29T16:57:54.480Z,85.94
2022-11-29T17:00:57.194Z,86.27
2022-11-29T17:04:00.772Z,86.06
2022-11-29T17:07:03.389Z,85.65
2022-11-29T17:10:13.600Z,85.46
2022-11-29T17:13:16.285Z,86.23
2022-11-29T17:16:21.659Z,87.43
2022-11-29T17:19:24.575Z,86.45
2022-11-29T17:22:27.487Z,86.09
2022-11-29T17:25:30.180Z,86.00
2022-11-29T17:28:33.503Z,86.09
2022-11-29T17:31:37.626Z,86.76
2022-11-29T17:34:40.404Z,86.14
2022-11-29T17:37:42.879Z,86.72
2022-11-29T17:40:46.271Z,86.63
2022-11-29T17:43:50.035Z,86.11
2022-11-29T17:46:52.790Z,85.59
2022-11-29T17:49:55.704Z,84.86
2022-11-29T17:52:58.549Z,84.85
2022-11-29T17:56:15.813Z,85.49
2022-11-29T17:59:18.972Z,86.52
2022-11-29T18:02:22.876Z,86.49
2022-11-29T18:05:30.134Z,87.66
2022-11-29T18:08:45.437Z,87.55
2022-11-29T18:11:50.121Z,87.07
2022-11-29T18:14:53.077Z,86.46
2022-11-29T18:18:03.233Z,86.56
2022-11-29T18:21:08.088Z,86.99
2022-11-29T18:24:11.125Z,87.83
2022-11-29T18:27:14.050Z,87.32
2022-11-29T18:30:17.122Z,88.29
2022-11-29T18:33:20.264Z,89.45
2022-11-29T18:36:26.305Z,88.74
2022-11-29T18:39:29.689Z,87.61
2022-11-29T18:42:32.911Z,87.76
2022-11-29T18:45:36.672Z,87.48
2022-11-29T18:48:40.572Z,87.74
2022-11-29T18:51:45.411Z,87.04
2022-11-29T18:54:48.796Z,87.25
2022-11-29T18:57:53.803Z,87.02
2022-11-29T19:01:09.585Z,87.67
2022-11-29T19:04:21.670Z,87.31
2022-11-29T19:07:24.720Z,88.17
2022-11-29T19:10:27.520Z,88.01
2022-11-29T19:13:30.652Z,87.73
2022-11-29T19:16:34.534Z,88.54
2022-11-29T19:19:37.868Z,88.73
2022-11-29T19:22:40.765Z,89.52
2022-11-29T19:25:43.858Z,89.36
2022-11-29T19:28:47.279Z,89.83
2022-11-29T19:31:50.703Z,89.41
2022-11-29T19:34:53.478Z,88.35
2022-11-29T19:37:56.522Z,87.62
2022-11-29T19:40:59.200Z,88.01
2022-11-29T19:44:07.915Z,87.88
2022-11-29T19:47:10.616Z,87.31
2022-11-29T19:50:13.792Z,88.82
2022-11-29T19:53:17.263Z,87.61
2022-11-29T19:56:20.785Z,86.88
2022-11-29T19:59:24.523Z,86.75
2022-11-29T20:02:29.351Z,87.53
2022-11-29T20:05:34.391Z,88.27
2022-11-29T20:08:38.266Z,87.85
2022-11-29T20:11:42.744Z,87.58
2022-11-29T20:14:45.902Z,87.55
2022-11-29T20:17:48.528Z,87.62
2022-11-29T20:20:54.067Z,87.39
2022-11-29T20:23:58.755Z,87.05
2022-11-29T20:27:01.586Z,86.89
2022-11-29T20:30:04.852Z,87.79
2022-11-29T20:33:10.442Z,88.08
2022-11-29T20:36:16.278Z,88.46
2022-11-29T20:39:39.299Z,88.14
2022-11-29T20:43:06.025Z,88.43
2022-11-29T20:46:09.447Z,88.10
2022-11-29T20:49:17.298Z,88.54
2022-11-29T20:52:38.714Z,89.21
2022-11-29T20:55:47.751Z,89.58
2022-11-29T20:58:51.080Z,89.09
2022-11-29T21:01:54.346Z,89.16
2022-11-29T21:04:57.631Z,89.13
2022-11-29T21:08:00.314Z,89.32
2022-11-29T21:11:06.853Z,89.25
2022-11-29T21:14:09.696Z,89.42
2022-11-29T21:17:13.011Z,89.18
2022-11-29T21:20:22.738Z,88.93
2022-11-29T21:24:08.191Z,88.41
2022-11-29T21:27:18.599Z,88.12
2022-11-29T21:30:24.241Z,88.29
2022-11-29T21:33:27.464Z,87.97
2022-11-29T21:36:30.678Z,87.90
2022-11-29T21:39:34.549Z,87.72
2022-11-29T21:42:38.156Z,88.01
2022-11-29T21:45:40.688Z,87.90
2022-11-29T21:48:44.660Z,88.05
2022-11-29T21:51:50.424Z,88.03
2022-11-29T21:54:52.983Z,88.09
2022-11-29T21:57:55.549Z,88.25
2022-11-29T22:01:09.775Z,88.23
2022-11-29T22:04:13.172Z,88.06
2022-11-29T22:07:16.209Z,88.20
2022-11-29T22:10:18.733Z,88.26
2022-11-29T22:13:21.750Z,87.85
2022-11-29T22:16:24.526Z,87.62
2022-11-29T22:19:30.946Z,87.93
2022-11-29T22:22:33.596Z,88.03
2022-11-29T22:25:36.156Z,88.79
2022-11-29T22:28:39.238Z,88.81
2022-11-29T22:31:43.973Z,88.88
2022-11-29T22:34:46.857Z,89.16
2022-11-29T22:37:49.888Z,88.95
2022-11-29T22:40:52.395Z,87.99
2022-11-29T22:43:55.635Z,88.42
2022-11-29T22:46:58.160Z,88.73
2022-11-29T22:50:01.079Z,89.02
2022-11-29T22:53:05.177Z,88.60
2022-11-29T22:56:10.915Z,87.63
2022-11-29T22:59:14.102Z,88.09
2022-11-29T23:02:16.822Z,87.67
2022-11-29T23:05:19.423Z,87.26
2022-11-29T23:08:22.470Z,86.59
2022-11-29T23:11:27.671Z,86.50
2022-11-29T23:14:30.470Z,87.21
2022-11-29T23:17:32.944Z,87.67
2022-11-29T23:20:37.691Z,87.44
2022-11-29T23:23:40.922Z,87.87
2022-11-29T23:26:47.472Z,87.63
2022-11-29T23:29:49.929Z,86.65
2022-11-29T23:32:52.891Z,86.84
2022-11-29T23:36:04.746Z,86.69
2022-11-29T23:39:08.210Z,86.84
2022-11-29T23:42:10.710Z,87.54
2022-11-29T23:45:13.521Z,88.09
2022-11-29T23:48:16.364Z,87.70
2022-11-29T23:51:19.855Z,87.51
2022-11-29T23:54:23.123Z,87.44
2022-11-29T23:57:25.851Z,86.85
